Almondsbury, United Kingdom
Current Conditions -  °F | °C
As of 4:20 PM on Friday 24 Oct 2014 (Local Time) from EGGD Reporting Station
Rain Showers Rain Showers  
Wind Chill: 55°   Ceiling: 300
Heat Index: 55°   Visibility: 4mi
Dew Point: 55°   Wind: 15mph
Humidity: 100%   Direction: 260°W
Pressure: 29.91"   Gusts: NA
Location:  51.55°N, 2.57°W
Report Text: EGGD 241520Z 26013KT 7000 2500N VCSH FEW001 BKN003 13/13 Q1013
Loading
Personal Weather Stations






























Interactive Weather Map
Tropical Storm Tracking
New forecast layout! Learn more

10-Day Weather Forecast

Advertisements
Track Severe Weather on mobile